sensor_id;sensor_type;location;lat;lon;timestamp;pressure;altitude;pressure_sealevel;temperature;humidity
42289;BME280;30230;47.520;19.016;2023-09-12T00:00:35;98877.38;;;19.63;69.72
42289;BME280;30230;47.520;19.016;2023-09-12T00:02:35;98878.16;;;19.58;69.99
42289;BME280;30230;47.520;19.016;2023-09-12T00:04:35;98882.56;;;19.54;70.33
42289;BME280;30230;47.520;19.016;2023-09-12T00:06:36;98884.19;;;19.50;70.42
42289;BME280;30230;47.520;19.016;2023-09-12T00:08:36;98881.47;;;19.50;71.79
42289;BME280;30230;47.520;19.016;2023-09-12T00:10:36;98876.50;;;19.47;70.72
42289;BME280;30230;47.520;19.016;2023-09-12T00:12:36;98882.81;;;19.47;70.14
42289;BME280;30230;47.520;19.016;2023-09-12T00:14:37;98885.53;;;19.42;70.80
42289;BME280;30230;47.520;19.016;2023-09-12T00:16:37;98892.09;;;19.41;71.26
42289;BME280;30230;47.520;19.016;2023-09-12T00:18:38;98883.88;;;19.36;71.68
42289;BME280;30230;47.520;19.016;2023-09-12T00:20:38;98882.78;;;19.32;71.23
42289;BME280;30230;47.520;19.016;2023-09-12T00:22:39;98885.22;;;19.23;71.43
42289;BME280;30230;47.520;19.016;2023-09-12T00:24:39;98884.91;;;19.15;71.74
42289;BME280;30230;47.520;19.016;2023-09-12T00:26:39;98884.91;;;19.15;71.97
42289;BME280;30230;47.520;19.016;2023-09-12T00:28:39;98884.63;;;19.16;71.37
42289;BME280;30230;47.520;19.016;2023-09-12T00:30:40;98883.28;;;19.19;71.32
42289;BME280;30230;47.520;19.016;2023-09-12T00:32:40;98872.34;;;19.19;72.34
42289;BME280;30230;47.520;19.016;2023-09-12T00:34:41;98879.16;;;19.16;73.14
42289;BME280;30230;47.520;19.016;2023-09-12T00:36:41;98878.91;;;19.18;73.58
42289;BME280;30230;47.520;19.016;2023-09-12T00:38:41;98875.31;;;19.17;72.52
42289;BME280;30230;47.520;19.016;2023-09-12T00:40:41;98879.75;;;19.18;72.27
42289;BME280;30230;47.520;19.016;2023-09-12T00:42:42;98883.28;;;19.19;72.68
42289;BME280;30230;47.520;19.016;2023-09-12T00:44:42;98881.63;;;19.13;74.42
42289;BME280;30230;47.520;19.016;2023-09-12T00:46:43;98879.13;;;19.06;73.44
42289;BME280;30230;47.520;19.016;2023-09-12T00:48:44;98879.13;;;19.01;73.58
42289;BME280;30230;47.520;19.016;2023-09-12T00:50:47;98884.03;;;18.94;74.31
42289;BME280;30230;47.520;19.016;2023-09-12T00:52:49;98885.38;;;18.91;75.00
42289;BME280;30230;47.520;19.016;2023-09-12T00:54:50;98889.44;;;18.84;73.90
42289;BME280;30230;47.520;19.016;2023-09-12T00:56:50;98883.16;;;18.83;75.85
42289;BME280;30230;47.520;19.016;2023-09-12T00:58:50;98873.34;;;18.87;74.84
42289;BME280;30230;47.520;19.016;2023-09-12T01:00:51;98885.31;;;18.81;75.13
42289;BME280;30230;47.520;19.016;2023-09-12T01:02:51;98879.31;;;18.79;75.90
42289;BME280;30230;47.520;19.016;2023-09-12T01:04:53;98882.31;;;18.78;75.70
42289;BME280;30230;47.520;19.016;2023-09-12T01:06:54;98872.13;;;18.68;74.87
42289;BME280;30230;47.520;19.016;2023-09-12T01:08:54;98873.19;;;18.67;75.13
42289;BME280;30230;47.520;19.016;2023-09-12T01:10:55;98881.09;;;18.63;75.53
42289;BME280;30230;47.520;19.016;2023-09-12T01:12:56;98880.00;;;18.64;76.83
42289;BME280;30230;47.520;19.016;2023-09-12T01:14:57;98869.91;;;18.65;76.08
42289;BME280;30230;47.520;19.016;2023-09-12T01:16:57;98875.94;;;18.67;75.89
42289;BME280;30230;47.520;19.016;2023-09-12T01:18:58;98880.34;;;18.68;75.75
42289;BME280;30230;47.520;19.016;2023-09-12T01:27:21;98879.50;;;18.67;75.51
42289;BME280;30230;47.520;19.016;2023-09-12T01:29:22;98875.13;;;18.66;75.73
42289;BME280;30230;47.520;19.016;2023-09-12T01:31:24;98873.78;;;18.69;74.93
42289;BME280;30230;47.520;19.016;2023-09-12T01:33:24;98873.25;;;18.72;74.42
42289;BME280;30230;47.520;19.016;2023-09-12T01:35:24;98877.38;;;18.74;74.56
42289;BME280;30230;47.520;19.016;2023-09-12T01:37:25;98879.28;;;18.74;75.82
42289;BME280;30230;47.520;19.016;2023-09-12T01:39:26;98871.63;;;18.76;73.70
42289;BME280;30230;47.520;19.016;2023-09-12T01:41:26;98870.25;;;18.73;75.64
42289;BME280;30230;47.520;19.016;2023-09-12T01:43:28;98873.28;;;18.77;74.55
42289;BME280;30230;47.520;19.016;2023-09-12T01:45:29;98871.63;;;18.76;74.71
42289;BME280;30230;47.520;19.016;2023-09-12T01:47:29;98879.84;;;18.81;74.50
42289;BME280;30230;47.520;19.016;2023-09-12T01:49:29;98870.28;;;18.84;75.51
42289;BME280;30230;47.520;19.016;2023-09-12T01:51:31;98874.38;;;18.81;75.08
42289;BME280;30230;47.520;19.016;2023-09-12T01:53:32;98872.97;;;18.73;76.58
42289;BME280;30230;47.520;19.016;2023-09-12T01:55:33;98876.50;;;18.69;75.04
42289;BME280;30230;47.520;19.016;2023-09-12T01:57:33;98875.38;;;18.65;75.33
42289;BME280;30230;47.520;19.016;2023-09-12T01:59:33;98875.38;;;18.65;75.59
42289;BME280;30230;47.520;19.016;2023-09-12T02:01:34;98873.97;;;18.57;76.80
42289;BME280;30230;47.520;19.016;2023-09-12T02:03:34;98875.28;;;18.49;76.34
42289;BME280;30230;47.520;19.016;2023-09-12T02:05:34;98874.19;;;18.45;76.16
42289;BME280;30230;47.520;19.016;2023-09-12T02:07:38;98885.09;;;18.40;77.43
42289;BME280;30230;47.520;19.016;2023-09-12T02:09:39;98880.69;;;18.39;77.24
42289;BME280;30230;47.520;19.016;2023-09-12T02:11:39;98887.84;;;18.40;75.42
42289;BME280;30230;47.520;19.016;2023-09-12T02:13:39;98886.47;;;18.43;75.66
42289;BME280;30230;47.520;19.016;2023-09-12T02:15:40;98887.28;;;18.43;76.28
42289;BME280;30230;47.520;19.016;2023-09-12T02:17:40;98888.06;;;18.39;76.17
42289;BME280;30230;47.520;19.016;2023-09-12T02:19:40;98889.44;;;18.36;76.37
42289;BME280;30230;47.520;19.016;2023-09-12T02:21:40;98888.63;;;18.36;76.13
42289;BME280;30230;47.520;19.016;2023-09-12T02:23:42;98885.59;;;18.37;76.51
42289;BME280;30230;47.520;19.016;2023-09-12T02:25:42;98884.00;;;18.41;75.99
42289;BME280;30230;47.520;19.016;2023-09-12T02:27:42;98884.00;;;18.41;76.66
42289;BME280;30230;47.520;19.016;2023-09-12T02:29:42;98879.31;;;18.37;78.03
42289;BME280;30230;47.520;19.016;2023-09-12T02:31:43;98883.13;;;18.31;77.36
42289;BME280;30230;47.520;19.016;2023-09-12T02:33:43;98883.06;;;18.26;78.24
42289;BME280;30230;47.520;19.016;2023-09-12T02:35:43;98876.44;;;18.16;77.65
42289;BME280;30230;47.520;19.016;2023-09-12T02:37:44;98883.22;;;18.09;78.00
42289;BME280;30230;47.520;19.016;2023-09-12T02:39:44;98878.84;;;18.08;78.59
42289;BME280;30230;47.520;19.016;2023-09-12T02:41:45;98883.75;;;18.06;79.08
42289;BME280;30230;47.520;19.016;2023-09-12T02:43:45;98880.44;;;18.04;79.62
42289;BME280;30230;47.520;19.016;2023-09-12T02:45:45;98877.97;;;18.02;78.41
42289;BME280;30230;47.520;19.016;2023-09-12T02:47:46;98884.53;;;18.01;78.08
42289;BME280;30230;47.520;19.016;2023-09-12T02:49:46;98879.34;;;18.00;79.84
42289;BME280;30230;47.520;19.016;2023-09-12T02:51:46;98879.34;;;18.00;79.34
42289;BME280;30230;47.520;19.016;2023-09-12T02:53:47;98884.22;;;17.98;79.74
42289;BME280;30230;47.520;19.016;2023-09-12T02:55:47;98879.34;;;18.00;80.25
42289;BME280;30230;47.520;19.016;2023-09-12T02:57:47;98882.06;;;18.00;80.76
42289;BME280;30230;47.520;19.016;2023-09-12T02:59:48;98875.19;;;17.97;79.76
42289;BME280;30230;47.520;19.016;2023-09-12T03:01:48;98878.75;;;17.98;79.99
42289;BME280;30230;47.520;19.016;2023-09-12T03:03:49;98883.97;;;17.99;79.75
42289;BME280;30230;47.520;19.016;2023-09-12T03:05:56;98876.56;;;17.94;79.97
42289;BME280;30230;47.520;19.016;2023-09-12T03:07:57;98874.66;;;17.95;80.36
42289;BME280;30230;47.520;19.016;2023-09-12T03:09:57;98882.03;;;17.94;79.72
42289;BME280;30230;47.520;19.016;2023-09-12T03:11:57;98877.38;;;17.95;79.72
42289;BME280;30230;47.520;19.016;2023-09-12T03:13:57;98877.13;;;17.96;79.54
42289;BME280;30230;47.520;19.016;2023-09-12T03:15:58;98873.28;;;17.98;80.32
42289;BME280;30230;47.520;19.016;2023-09-12T03:17:58;98869.44;;;17.93;78.76
42289;BME280;30230;47.520;19.016;2023-09-12T03:19:58;98874.88;;;17.93;79.21
42289;BME280;30230;47.520;19.016;2023-09-12T03:22:00;98879.53;;;17.93;79.84
42289;BME280;30230;47.520;19.016;2023-09-12T03:24:00;98874.06;;;17.93;80.19
42289;BME280;30230;47.520;19.016;2023-09-12T03:26:03;98875.75;;;17.94;80.36
42289;BME280;30230;47.520;19.016;2023-09-12T03:28:05;98879.34;;;18.00;78.67
42289;BME280;30230;47.520;19.016;2023-09-12T03:30:05;98875.56;;;18.06;78.12
42289;BME280;30230;47.520;19.016;2023-09-12T03:32:06;98878.78;;;18.03;79.00
42289;BME280;30230;47.520;19.016;2023-09-12T03:34:06;98879.88;;;18.02;78.63
42289;BME280;30230;47.520;19.016;2023-09-12T03:36:07;98887.56;;;18.05;78.38
42289;BME280;30230;47.520;19.016;2023-09-12T03:38:08;98892.00;;;18.11;78.79
42289;BME280;30230;47.520;19.016;2023-09-12T03:40:08;98888.94;;;18.07;79.04
42289;BME280;30230;47.520;19.016;2023-09-12T03:42:09;98888.94;;;18.07;78.47
42289;BME280;30230;47.520;19.016;2023-09-12T03:44:09;98891.94;;;18.06;78.83
42289;BME280;30230;47.520;19.016;2023-09-12T03:46:09;98895.78;;;18.05;78.52
42289;BME280;30230;47.520;19.016;2023-09-12T03:48:10;98890.28;;;18.00;79.01
42289;BME280;30230;47.520;19.016;2023-09-12T03:50:10;98891.38;;;18.04;78.78
42289;BME280;30230;47.520;19.016;2023-09-12T03:52:10;98882.09;;;18.05;78.79
42289;BME280;30230;47.520;19.016;2023-09-12T03:54:10;98894.09;;;18.04;78.74
42289;BME280;30230;47.520;19.016;2023-09-12T03:56:11;98889.44;;;17.99;78.97
42289;BME280;30230;47.520;19.016;2023-09-12T03:58:12;98886.94;;;17.98;78.98
42289;BME280;30230;47.520;19.016;2023-09-12T04:00:13;98885.88;;;17.99;79.57
42289;BME280;30230;47.520;19.016;2023-09-12T04:02:13;98882.63;;;18.02;78.79
42289;BME280;30230;47.520;19.016;2023-09-12T04:04:13;98884.81;;;18.00;80.16
42289;BME280;30230;47.520;19.016;2023-09-12T04:06:14;98884.72;;;17.89;79.62
42289;BME280;30230;47.520;19.016;2023-09-12T04:08:14;98881.63;;;17.81;80.97
42289;BME280;30230;47.520;19.016;2023-09-12T04:10:14;98885.13;;;17.76;80.86
42289;BME280;30230;47.520;19.016;2023-09-12T04:12:15;98887.78;;;17.71;81.00
42289;BME280;30230;47.520;19.016;2023-09-12T04:14:15;98885.59;;;17.68;81.33
42289;BME280;30230;47.520;19.016;2023-09-12T04:16:15;98888.28;;;17.63;81.55
42289;BME280;30230;47.520;19.016;2023-09-12T04:18:15;98892.03;;;17.57;83.05
42289;BME280;30230;47.520;19.016;2023-09-12T04:20:16;98889.25;;;17.52;82.41
42289;BME280;30230;47.520;19.016;2023-09-12T04:22:16;98894.19;;;17.55;82.23
42289;BME280;30230;47.520;19.016;2023-09-12T04:24:16;98894.16;;;17.50;81.78
42289;BME280;30230;47.520;19.016;2023-09-12T04:26:17;98892.50;;;17.49;82.05
42289;BME280;30230;47.520;19.016;2023-09-12T04:28:17;98898.53;;;17.51;82.42
42289;BME280;30230;47.520;19.016;2023-09-12T04:30:18;98893.94;;;17.56;82.48
42289;BME280;30230;47.520;19.016;2023-09-12T04:32:18;98899.16;;;17.58;81.81
42289;BME280;30230;47.520;19.016;2023-09-12T04:34:23;98896.44;;;17.58;82.03
42289;BME280;30230;47.520;19.016;2023-09-12T04:36:23;98898.56;;;17.56;82.28
42289;BME280;30230;47.520;19.016;2023-09-12T04:38:23;98902.38;;;17.55;82.46
42289;BME280;30230;47.520;19.016;2023-09-12T04:40:24;98898.84;;;17.54;82.66
42289;BME280;30230;47.520;19.016;2023-09-12T04:42:24;98896.38;;;17.53;83.48
42289;BME280;30230;47.520;19.016;2023-09-12T04:44:24;98911.34;;;17.50;84.29
42289;BME280;30230;47.520;19.016;2023-09-12T04:46:25;98908.06;;;17.48;83.66
42289;BME280;30230;47.520;19.016;2023-09-12T04:48:25;98909.16;;;17.47;84.43
42289;BME280;30230;47.520;19.016;2023-09-12T04:50:25;98906.66;;;17.45;84.92
42289;BME280;30230;47.520;19.016;2023-09-12T04:52:25;98909.97;;;17.48;84.86
42289;BME280;30230;47.520;19.016;2023-09-12T04:54:26;98913.25;;;17.50;85.28
42289;BME280;30230;47.520;19.016;2023-09-12T04:56:26;98919.84;;;17.54;84.90
42289;BME280;30230;47.520;19.016;2023-09-12T04:58:26;98916.03;;;17.55;85.09
42289;BME280;30230;47.520;19.016;2023-09-12T05:00:27;98918.50;;;17.56;85.25
42289;BME280;30230;47.520;19.016;2023-09-12T05:02:27;98911.72;;;17.59;85.19
42289;BME280;30230;47.520;19.016;2023-09-12T05:04:27;98912.88;;;17.63;85.38
42289;BME280;30230;47.520;19.016;2023-09-12T05:06:27;98917.28;;;17.69;84.41
42289;BME280;30230;47.520;19.016;2023-09-12T05:08:28;98917.03;;;17.70;85.03
42289;BME280;30230;47.520;19.016;2023-09-12T05:10:29;98917.59;;;17.73;85.89
42289;BME280;30230;47.520;19.016;2023-09-12T05:12:29;98920.16;;;17.79;85.83
42289;BME280;30230;47.520;19.016;2023-09-12T05:14:29;98922.34;;;17.82;84.72
42289;BME280;30230;47.520;19.016;2023-09-12T05:16:30;98913.91;;;17.84;84.92
42289;BME280;30230;47.520;19.016;2023-09-12T05:18:30;98917.69;;;17.83;86.58
42289;BME280;30230;47.520;19.016;2023-09-12T05:20:30;98915.00;;;17.88;85.16
42289;BME280;30230;47.520;19.016;2023-09-12T05:22:31;98915.38;;;17.96;84.39
42289;BME280;30230;47.520;19.016;2023-09-12T05:24:31;98919.78;;;18.03;83.96
42289;BME280;30230;47.520;19.016;2023-09-12T05:26:31;98919.06;;;18.12;83.91
42289;BME280;30230;47.520;19.016;2023-09-12T05:28:31;98921.56;;;18.19;84.20
42289;BME280;30230;47.520;19.016;2023-09-12T05:30:32;98917.22;;;18.23;83.86
42289;BME280;30230;47.520;19.016;2023-09-12T05:32:32;98921.59;;;18.24;83.30
42289;BME280;30230;47.520;19.016;2023-09-12T05:34:32;98923.00;;;18.27;83.86
42289;BME280;30230;47.520;19.016;2023-09-12T05:36:32;98926.28;;;18.29;83.24
42289;BME280;30230;47.520;19.016;2023-09-12T05:38:33;98927.41;;;18.33;83.10
42289;BME280;30230;47.520;19.016;2023-09-12T05:40:33;98935.91;;;18.36;82.19
42289;BME280;30230;47.520;19.016;2023-09-12T05:42:33;98936.22;;;18.45;82.08
42289;BME280;30230;47.520;19.016;2023-09-12T05:44:33;98936.84;;;18.52;83.67
42289;BME280;30230;47.520;19.016;2023-09-12T05:46:34;98936.09;;;18.62;83.16
42289;BME280;30230;47.520;19.016;2023-09-12T05:48:34;98939.94;;;18.66;83.51
42289;BME280;30230;47.520;19.016;2023-09-12T05:50:34;98944.63;;;18.70;83.24
42289;BME280;30230;47.520;19.016;2023-09-12T05:52:35;98946.59;;;18.75;82.79
42289;BME280;30230;47.520;19.016;2023-09-12T05:54:36;98948.53;;;18.80;83.02
42289;BME280;30230;47.520;19.016;2023-09-12T05:56:36;98952.13;;;18.85;82.79
42289;BME280;30230;47.520;19.016;2023-09-12T05:58:36;98950.50;;;18.89;82.87
42289;BME280;30230;47.520;19.016;2023-09-12T06:00:41;98949.19;;;18.97;82.40
42289;BME280;30230;47.520;19.016;2023-09-12T06:02:41;98949.19;;;19.02;82.44
42289;BME280;30230;47.520;19.016;2023-09-12T06:04:42;98950.06;;;19.08;82.58
42289;BME280;30230;47.520;19.016;2023-09-12T06:06:42;98949.22;;;19.12;82.55
42289;BME280;30230;47.520;19.016;2023-09-12T06:08:43;98947.63;;;19.16;82.28
42289;BME280;30230;47.520;19.016;2023-09-12T06:10:43;98948.72;;;19.20;81.77
42289;BME280;30230;47.520;19.016;2023-09-12T06:12:43;98947.94;;;19.25;80.79
42289;BME280;30230;47.520;19.016;2023-09-12T06:14:43;98943.28;;;19.31;80.82
42289;BME280;30230;47.520;19.016;2023-09-12T06:16:44;98946.34;;;19.39;80.75
42289;BME280;30230;47.520;19.016;2023-09-12T06:18:44;98950.75;;;19.45;80.52
42289;BME280;30230;47.520;19.016;2023-09-12T06:20:44;98958.47;;;19.64;81.94
42289;BME280;30230;47.520;19.016;2023-09-12T06:22:45;98957.69;;;19.73;80.18
42289;BME280;30230;47.520;19.016;2023-09-12T06:24:45;98957.97;;;19.77;78.54
42289;BME280;30230;47.520;19.016;2023-09-12T06:26:45;98956.88;;;19.83;78.13
42289;BME280;30230;47.520;19.016;2023-09-12T06:28:46;98951.13;;;19.90;77.76
42289;BME280;30230;47.520;19.016;2023-09-12T06:30:46;98950.06;;;19.96;77.38
42289;BME280;30230;47.520;19.016;2023-09-12T06:32:46;98950.88;;;20.01;77.04
42289;BME280;30230;47.520;19.016;2023-09-12T06:34:46;98959.13;;;20.07;77.44
42289;BME280;30230;47.520;19.016;2023-09-12T06:36:47;98948.97;;;20.12;77.65
42289;BME280;30230;47.520;19.016;2023-09-12T06:38:48;98954.19;;;20.19;77.80
42289;BME280;30230;47.520;19.016;2023-09-12T06:40:48;98950.06;;;20.21;78.14
42289;BME280;30230;47.520;19.016;2023-09-12T06:42:48;98954.72;;;20.26;78.37
42289;BME280;30230;47.520;19.016;2023-09-12T06:44:49;98952.25;;;20.35;77.02
42289;BME280;30230;47.520;19.016;2023-09-12T06:46:49;98951.44;;;20.39;76.50
42289;BME280;30230;47.520;19.016;2023-09-12T06:48:49;98948.97;;;20.43;75.60
42289;BME280;30230;47.520;19.016;2023-09-12T06:50:50;98957.47;;;20.46;74.69
42289;BME280;30230;47.520;19.016;2023-09-12T06:52:50;98955.84;;;20.50;73.05
42289;BME280;30230;47.520;19.016;2023-09-12T06:54:50;98956.38;;;20.58;72.42
42289;BME280;30230;47.520;19.016;2023-09-12T06:56:51;98959.13;;;20.63;72.10
42289;BME280;30230;47.520;19.016;2023-09-12T06:58:51;98951.72;;;20.68;72.19
42289;BME280;30230;47.520;19.016;2023-09-12T07:00:53;98958.53;;;20.76;72.70
42289;BME280;30230;47.520;19.016;2023-09-12T07:02:53;98955.25;;;20.84;72.47
42289;BME280;30230;47.520;19.016;2023-09-12T07:04:54;98959.59;;;20.90;71.32
42289;BME280;30230;47.520;19.016;2023-09-12T07:06:55;98963.16;;;20.96;71.55
42289;BME280;30230;47.520;19.016;2023-09-12T07:08:55;98962.03;;;21.02;71.91
42289;BME280;30230;47.520;19.016;2023-09-12T07:10:55;98965.56;;;21.13;71.53
42289;BME280;30230;47.520;19.016;2023-09-12T07:12:57;98965.53;;;21.23;71.33
42289;BME280;30230;47.520;19.016;2023-09-12T07:14:57;98970.72;;;21.35;71.35
42289;BME280;30230;47.520;19.016;2023-09-12T07:16:57;98967.88;;;21.55;71.17
42289;BME280;30230;47.520;19.016;2023-09-12T07:18:58;98965.28;;;21.79;70.02
42289;BME280;30230;47.520;19.016;2023-09-12T07:20:58;98970.63;;;22.04;69.00
42289;BME280;30230;47.520;19.016;2023-09-12T07:22:59;98977.13;;;22.24;69.14
42289;BME280;30230;47.520;19.016;2023-09-12T07:24:59;98973.03;;;22.50;65.71
42289;BME280;30230;47.520;19.016;2023-09-12T07:27:00;98965.75;;;22.65;64.25
42289;BME280;30230;47.520;19.016;2023-09-12T07:29:01;98974.06;;;22.83;62.67
42289;BME280;30230;47.520;19.016;2023-09-12T07:31:02;98966.88;;;22.93;61.92
42289;BME280;30230;47.520;19.016;2023-09-12T07:33:03;98965.56;;;23.09;61.93
42289;BME280;30230;47.520;19.016;2023-09-12T07:35:06;98980.59;;;23.22;61.69
42289;BME280;30230;47.520;19.016;2023-09-12T07:37:07;98981.03;;;23.29;62.18
42289;BME280;30230;47.520;19.016;2023-09-12T07:39:07;98978.16;;;23.39;63.01
42289;BME280;30230;47.520;19.016;2023-09-12T07:41:07;98979.16;;;23.48;61.95
42289;BME280;30230;47.520;19.016;2023-09-12T07:43:08;98978.78;;;23.55;62.63
42289;BME280;30230;47.520;19.016;2023-09-12T07:45:09;98979.00;;;23.63;62.21
42289;BME280;30230;47.520;19.016;2023-09-12T07:47:10;98986.88;;;23.70;62.15
42289;BME280;30230;47.520;19.016;2023-09-12T07:49:10;98986.50;;;23.77;61.27
42289;BME280;30230;47.520;19.016;2023-09-12T07:51:11;98976.16;;;23.87;58.48
42289;BME280;30230;47.520;19.016;2023-09-12T07:53:11;98975.72;;;23.99;56.57
42289;BME280;30230;47.520;19.016;2023-09-12T07:55:12;98980.34;;;24.04;56.36
42289;BME280;30230;47.520;19.016;2023-09-12T07:57:12;98979.97;;;24.10;56.61
42289;BME280;30230;47.520;19.016;2023-09-12T07:59:12;98980.41;;;24.17;56.51
42289;BME280;30230;47.520;19.016;2023-09-12T08:01:14;98978.38;;;24.23;55.35
42289;BME280;30230;47.520;19.016;2023-09-12T08:03:14;98981.44;;;24.22;57.71
42289;BME280;30230;47.520;19.016;2023-09-12T08:05:17;98973.81;;;24.32;55.78
42289;BME280;30230;47.520;19.016;2023-09-12T08:07:19;98977.38;;;24.33;55.97
42289;BME280;30230;47.520;19.016;2023-09-12T08:09:19;98976.22;;;24.39;56.18
42289;BME280;30230;47.520;19.016;2023-09-12T08:11:20;98975.03;;;24.45;58.16
42289;BME280;30230;47.520;19.016;2023-09-12T08:13:21;98971.06;;;24.51;58.25
42289;BME280;30230;47.520;19.016;2023-09-12T08:15:22;98974.53;;;24.57;56.44
42289;BME280;30230;47.520;19.016;2023-09-12T08:17:22;98967.22;;;24.66;55.61
42289;BME280;30230;47.520;19.016;2023-09-12T08:19:23;98962.31;;;24.77;55.87
42289;BME280;30230;47.520;19.016;2023-09-12T08:21:24;98974.00;;;24.87;55.33
42289;BME280;30230;47.520;19.016;2023-09-12T08:23:24;98966.44;;;24.93;55.18
42289;BME280;30230;47.520;19.016;2023-09-12T08:25:24;98971.31;;;24.96;54.36
42289;BME280;30230;47.520;19.016;2023-09-12T08:27:24;98974.94;;;24.97;55.93
42289;BME280;30230;47.520;19.016;2023-09-12T08:29:25;98975.13;;;25.00;56.07
42289;BME280;30230;47.520;19.016;2023-09-12T08:31:25;98971.38;;;25.10;55.31
42289;BME280;30230;47.520;19.016;2023-09-12T08:33:27;98971.59;;;25.13;56.38
42289;BME280;30230;47.520;19.016;2023-09-12T08:35:27;98978.66;;;25.19;56.92
42289;BME280;30230;47.520;19.016;2023-09-12T08:37:27;98968.53;;;25.29;54.33
42289;BME280;30230;47.520;19.016;2023-09-12T08:39:38;98977.22;;;25.36;54.40
42289;BME280;30230;47.520;19.016;2023-09-12T08:41:39;98979.75;;;25.46;53.77
42289;BME280;30230;47.520;19.016;2023-09-12T08:43:39;98974.63;;;25.53;54.47
42289;BME280;30230;47.520;19.016;2023-09-12T08:45:40;98973.91;;;25.61;55.48
42289;BME280;30230;47.520;19.016;2023-09-12T08:47:41;98970.84;;;25.77;53.05
42289;BME280;30230;47.520;19.016;2023-09-12T08:49:42;98972.22;;;25.88;52.45
42289;BME280;30230;47.520;19.016;2023-09-12T08:51:42;98979.59;;;25.92;55.15
42289;BME280;30230;47.520;19.016;2023-09-12T08:53:43;98971.88;;;26.03;53.39
42289;BME280;30230;47.520;19.016;2023-09-12T08:55:43;98970.81;;;26.13;52.76
42289;BME280;30230;47.520;19.016;2023-09-12T08:57:43;98971.53;;;26.18;52.58
42289;BME280;30230;47.520;19.016;2023-09-12T08:59:44;98973.84;;;26.25;53.50
42289;BME280;30230;47.520;19.016;2023-09-12T09:01:47;98966.63;;;26.38;51.74
42289;BME280;30230;47.520;19.016;2023-09-12T09:03:51;98971.34;;;26.60;48.93
42289;BME280;30230;47.520;19.016;2023-09-12T09:05:51;98971.09;;;26.70;47.94
42289;BME280;30230;47.520;19.016;2023-09-12T09:07:52;98966.41;;;26.79;48.37
42289;BME280;30230;47.520;19.016;2023-09-12T09:09:52;98970.41;;;26.95;48.05
42289;BME280;30230;47.520;19.016;2023-09-12T09:11:54;98969.31;;;27.05;48.77
42289;BME280;30230;47.520;19.016;2023-09-12T09:13:54;98967.44;;;27.14;48.60
42289;BME280;30230;47.520;19.016;2023-09-12T09:18:13;98969.28;;;27.36;47.13
42289;BME280;30230;47.520;19.016;2023-09-12T09:22:23;98972.09;;;27.45;45.96
42289;BME280;30230;47.520;19.016;2023-09-12T09:24:24;98966.88;;;27.52;46.84
42289;BME280;30230;47.520;19.016;2023-09-12T09:26:24;98966.06;;;27.60;46.97
42289;BME280;30230;47.520;19.016;2023-09-12T09:28:24;98962.50;;;27.68;44.40
42289;BME280;30230;47.520;19.016;2023-09-12T09:30:39;98966.47;;;27.76;46.20
42289;BME280;30230;47.520;19.016;2023-09-12T09:32:40;98970.56;;;27.87;46.18
42289;BME280;30230;47.520;19.016;2023-09-12T09:34:40;98966.00;;;28.00;43.70
42289;BME280;30230;47.520;19.016;2023-09-12T09:36:42;98973.19;;;28.10;43.99
42289;BME280;30230;47.520;19.016;2023-09-12T09:38:43;98965.50;;;28.24;43.64
42289;BME280;30230;47.520;19.016;2023-09-12T09:40:43;98977.13;;;28.35;43.72
42289;BME280;30230;47.520;19.016;2023-09-12T09:42:44;98972.56;;;28.39;42.49
42289;BME280;30230;47.520;19.016;2023-09-12T09:44:44;98977.44;;;28.50;40.77
42289;BME280;30230;47.520;19.016;2023-09-12T09:46:45;98980.84;;;28.56;41.43
42289;BME280;30230;47.520;19.016;2023-09-12T09:48:49;98969.38;;;28.66;39.08
42289;BME280;30230;47.520;19.016;2023-09-12T09:50:50;98974.28;;;28.69;40.30
42289;BME280;30230;47.520;19.016;2023-09-12T09:52:55;98980.50;;;28.75;38.61
42289;BME280;30230;47.520;19.016;2023-09-12T09:54:56;98970.81;;;28.90;37.93
42289;BME280;30230;47.520;19.016;2023-09-12T09:56:56;98962.13;;;28.91;37.63
42289;BME280;30230;47.520;19.016;2023-09-12T09:58:57;98957.56;;;28.95;37.76
42289;BME280;30230;47.520;19.016;2023-09-12T10:00:57;98958.84;;;28.98;38.57
42289;BME280;30230;47.520;19.016;2023-09-12T10:02:57;98958.31;;;29.04;38.49
42289;BME280;30230;47.520;19.016;2023-09-12T10:04:58;98952.88;;;29.17;36.67
42289;BME280;30230;47.520;19.016;2023-09-12T10:07:00;98958.09;;;29.18;37.47
42289;BME280;30230;47.520;19.016;2023-09-12T10:09:00;98956.09;;;29.27;37.10
42289;BME280;30230;47.520;19.016;2023-09-12T10:11:06;98957.63;;;29.46;34.48
42289;BME280;30230;47.520;19.016;2023-09-12T10:13:06;98958.25;;;29.51;36.37
42289;BME280;30230;47.520;19.016;2023-09-12T10:15:08;98958.44;;;29.55;36.01
42289;BME280;30230;47.520;19.016;2023-09-12T10:17:09;98951.66;;;29.65;35.22
42289;BME280;30230;47.520;19.016;2023-09-12T10:19:16;98961.31;;;29.67;35.62
42289;BME280;30230;47.520;19.016;2023-09-12T10:21:19;98949.44;;;29.79;35.75
42289;BME280;30230;47.520;19.016;2023-09-12T10:23:30;98957.09;;;29.82;35.03
42289;BME280;30230;47.520;19.016;2023-09-12T10:25:32;98953.91;;;29.92;34.68
42289;BME280;30230;47.520;19.016;2023-09-12T10:27:32;98961.19;;;30.05;35.03
42289;BME280;30230;47.520;19.016;2023-09-12T10:29:33;98950.38;;;30.04;34.10
42289;BME280;30230;47.520;19.016;2023-09-12T10:31:33;98943.63;;;30.14;34.60
42289;BME280;30230;47.520;19.016;2023-09-12T10:33:34;98943.81;;;30.29;34.02
42289;BME280;30230;47.520;19.016;2023-09-12T10:35:35;98947.19;;;30.35;35.25
42289;BME280;30230;47.520;19.016;2023-09-12T10:37:37;98936.50;;;30.37;36.17
42289;BME280;30230;47.520;19.016;2023-09-12T10:39:38;98946.66;;;30.54;33.89
42289;BME280;30230;47.520;19.016;2023-09-12T10:41:39;98936.69;;;30.65;37.11